createdAt,value
2022-10-30T00:01:32.985Z,4125.36493
2022-10-30T00:16:35.315Z,3871.40953
2022-10-30T00:31:37.574Z,4297.64667
2022-10-30T00:46:39.898Z,4327.21763
2022-10-30T01:01:42.628Z,3832.09258
2022-10-30T01:16:44.969Z,3056.15599
2022-10-30T01:31:47.655Z,2565.73034
2022-10-30T01:46:49.920Z,2506.64356
2022-10-30T02:01:52.296Z,2267.62871
2022-10-30T02:16:54.578Z,2249.60305
2022-10-30T02:31:56.805Z,2070.22728
2022-10-30T02:46:59.271Z,1943.68182
2022-10-30T03:02:01.595Z,1742.61133
2022-10-30T03:17:03.917Z,1784.36367
2022-10-30T03:32:06.319Z,1667.64929
2022-10-30T03:47:08.680Z,1526.42983
2022-10-30T04:02:11.317Z,1582.77454
2022-10-30T04:17:13.707Z,1455.76183
2022-10-30T04:32:15.918Z,1466.32176
2022-10-30T04:47:18.217Z,1439.47152
2022-10-30T05:02:20.640Z,1412.17616
2022-10-30T05:17:22.994Z,1398.22186
2022-10-30T05:32:25.258Z,1407.96071
2022-10-30T05:47:27.652Z,1403.77035
2022-10-30T06:02:29.954Z,1376.45966
2022-10-30T06:17:32.228Z,1391.34761
2022-10-30T06:32:34.444Z,1379.14281
2022-10-30T06:47:36.655Z,1368.47246
2022-10-30T07:02:38.974Z,1360.57743
2022-10-30T07:17:41.053Z,1328.63901
2022-10-30T07:32:43.383Z,1312.61646
2022-10-30T07:47:45.609Z,1277.07632
2022-10-30T08:02:47.865Z,1251.10572
2022-10-30T08:17:50.125Z,1282.86542
2022-10-30T08:32:52.317Z,1263.39336
2022-10-30T08:47:54.611Z,1365.83063
2022-10-30T09:02:57.566Z,1295.78805
2022-10-30T09:18:00.759Z,1329.88773
2022-10-30T09:33:03.835Z,1319.9632
2022-10-30T09:48:06.573Z,1292.23795
2022-10-30T10:03:08.853Z,1294.60252
2022-10-30T10:18:11.124Z,1279.38568
2022-10-30T10:33:13.380Z,1261.14133
2022-10-30T10:48:15.694Z,1264.5224
2022-10-30T11:03:18.051Z,1299.35772
2022-10-30T11:18:20.280Z,1254.43313
2022-10-30T11:33:22.481Z,1242.31833
2022-10-30T11:48:24.765Z,1202.20951
2022-10-30T12:03:26.993Z,1227.23381
2022-10-30T12:33:31.396Z,1203.2318
2022-10-30T12:48:33.603Z,1189.07614
2022-10-30T13:03:35.758Z,1185.09263
2022-10-30T13:18:38.018Z,1130.1922
2022-10-30T13:33:40.340Z,1136.54669
2022-10-30T13:48:42.701Z,1099.4566
2022-10-30T14:03:44.892Z,1116.81187
2022-10-30T14:18:47.318Z,1085.95599
2022-10-30T14:33:49.672Z,1052.82788
2022-10-30T14:48:51.948Z,1029.84038
2022-10-30T15:03:54.160Z,1019.45295
2022-10-30T15:18:56.427Z,1002.83537
2022-10-30T15:33:58.613Z,993.68028
2022-10-30T15:49:00.808Z,959.97336
2022-10-30T16:04:03.122Z,995.07786
2022-10-30T16:19:05.315Z,1020.92402
2022-10-30T16:34:07.660Z,1046.59813
2022-10-30T16:49:10.034Z,1073.59686
2022-10-30T17:19:14.558Z,1260.01832
2022-10-30T17:34:16.965Z,1443.87806
2022-10-30T17:49:19.185Z,1647.26475
2022-10-30T18:04:21.683Z,1719.32006
2022-10-30T18:19:23.981Z,1753.40818
2022-10-30T18:34:26.187Z,1889.18608
2022-10-30T18:49:28.394Z,2074.78056
2022-10-30T19:04:30.770Z,2175.25031
2022-10-30T19:19:33.153Z,2388.18616
2022-10-30T19:34:35.415Z,2652.29668
2022-10-30T19:49:37.802Z,3517.71336
2022-10-30T20:04:40.079Z,3811.44831
2022-10-30T20:19:42.302Z,3985.91599
2022-10-30T20:34:44.501Z,4453.18698
2022-10-30T20:49:46.720Z,4612.87745
2022-10-30T21:04:48.925Z,4601.62653
2022-10-30T21:19:51.154Z,4700.9972
2022-10-30T21:34:53.353Z,4744.34251
2022-10-30T21:49:55.642Z,4845.89093
2022-10-30T22:04:57.832Z,4689.31286
2022-10-30T22:20:00.026Z,4748.32267
2022-10-30T22:35:02.442Z,4646.96275
2022-10-30T22:50:04.669Z,4854.20292
2022-10-30T23:05:06.977Z,4681.55552
2022-10-30T23:20:09.198Z,3852.9617
2022-10-30T23:35:11.507Z,3444.91832
2022-10-30T23:50:13.813Z,3383.14454
